메인 페이지
METAR-TAF:

METAR-TAF

공항 :

셰레메티예보 국제공항

모스크바 Sheremetyevo, 러시아

위도: 55-58N, 경도: 037-25E, 고도: 190m

현재 날씨관측

예보는 40분 전, 18:00시(UTC)에 발표되었습니다.
남남서14kt
온도 2°C
습도 87%
기압 996 hPa
시정 10km 이상
고도 1100ft 상공 구름 많음
약한눈

METAR: UUEE 201800Z 20007MPS 9999 -SN BKN011 02/00 Q0996 R24C/290045 R24L/290051 NOSIG

시각: 21:40 (18:40 UTC)

예보

예보는 1 시간 41분 전, 16:59시(UTC)에 발표되었습니다.
예보 대상 시간: 20일 18시부터 21일 18시까지 (UTC)
남서14kt, 순간 최대 풍속 27kt
시정: 3100m
고도 500ft 상공 구름 조금
고도 1100ft 상공 흐림
약한눈
일시적
20일 20시부터 21일 04시까지 (UTC)
시정: 1000m
고도 400ft 상공 구름 조금
고도 1200ft 상공 구름 많음, 적란운.
소낙눈
전환 중
21일 00시부터 21일 02시까지 (UTC)
14kt, 순간 최대 풍속 27kt
일시적
21일 09시부터 21일 18시까지 (UTC)
시정: 1500m
고도 500ft 상공 구름 조금
고도 1200ft 상공 구름 많음, 적란운.
소낙눈, 날린눈
전환 중
21일 14시부터 21일 16시까지 (UTC)
북북서17kt, 순간 최대 풍속 31kt

TAF: UUEE 201659Z 2018/2118 22007G14MPS 3100 -SN FEW005 OVC011 TX02/2018Z TNM05/2118Z TEMPO 2020/2104 1000 SHSN FEW004 BKN012CB BECMG 2100/2102 28007G14MPS TEMPO 2109/2118 1500 SHSN BLSN FEW005 BKN012CB BECMG 2114/2116 34009G16MPS

4,000개 이상의 공항 관측 자료 및 예보 (METAR 및 TAF 보고).

지도상에서 검색 가능한 기상관측소가 노란 점과 빨간 점으로 표시되어 있습니다.

기상관측소 명을 보려면 표시 위로 마우스를 이동하세요.

날씨 관측과 예보를 보려면 클릭하세요.

지도 변경 : 확대하려면 엑스 표시가 있는 녹색 버튼, 축소하려면 빼기 표시가 있는 녹색 버튼, 다음 페이지의 지도를 보려면 녹색 화살표를 클릭하세요.


METAR-TAF: